Blue Grass Airport Lexington US
ICAO: KLEX
IATA: LEX
Category: Large
Scheduled Services: Yes

Elevation: 979 ft
TransAlt. 18000 ft.

Airport Communications:
LEXINGTON APP/DEP:120.15
ATIS:126.3
CLNC DEL:132.35
GND:121.9
LEXINGTON TWR:119.1
UNICOM:122.95

KLEX Zoom In..

Runways:

(A) RW 04 length 7004 ft width 150 ft
ILS 110.10 / hdg 46

(B) RW 09 length 4000 ft width 75 ft
---- / hdg 87

(C) RW 22 length 7004 ft width 150 ft
ILS 111.75 / hdg 226

(D) RW 27 length 4000 ft width 75 ft
---- / hdg 267

Location; KLEX
Day. 20 / Time. 09.54 Zulu
* Altimeter: 30.39
* Temperature: 02° c. 35.6°f.
* Wind from: 350° Speed 05 kn.
Dewpoint: -03° c.
Visibility: 10 Statute Miles.
Clouds: Clear (automated report).

KLEX 200954Z 35005KT 10SM CLR 02/M03 A3039 RMK AO2 SLP295 T00171033


Wind From 350°
Speed 05 kn.

  YouTube Music Video
 
jpsmedia.com for Web Design  worldairports.se 2018   terms of use